Bomnak, Russia
Current Conditions -  °F | °C
As of 3:00 AM on Tuesday 21 Oct 2014 (Local Time) from UHBB Reporting Station
Clear Clear  
Wind Chill:   Ceiling: Unl
Heat Index: 14°   Visibility: 6mi
Dew Point:   Wind: 9mph
Humidity: 62%   Direction: 250°WSW
Pressure: 30.15"   Gusts: NA
Location:  54.71°N, 128.86°E
Report Text: UHBB 201800Z 25004MPS 220V280 CAVOK M10/M16 Q1021 NOSIG RMKQFE748/0998 36090060
Loading
Personal Weather Stations






























Interactive Weather Map
Tropical Storm Tracking
New forecast layout! Learn more

10-Day Weather Forecast

Advertisements
Track Severe Weather on mobile